createdAt,value
2019-05-14T00:02:12.581Z,15.65
2019-05-14T00:04:45.504Z,15.66
2019-05-14T00:07:17.071Z,15.61
2019-05-14T00:09:48.604Z,15.65
2019-05-14T00:12:22.245Z,15.61
2019-05-14T00:14:53.418Z,15.56
2019-05-14T00:17:24.952Z,15.53
2019-05-14T00:20:07.191Z,15.57
2019-05-14T00:22:46.703Z,15.58
2019-05-14T00:25:18.226Z,15.58
2019-05-14T00:27:51.729Z,15.55
2019-05-14T00:30:22.993Z,15.53
2019-05-14T00:32:54.461Z,15.52
2019-05-14T00:35:27.541Z,15.53
2019-05-14T00:38:05.393Z,15.53
2019-05-14T00:40:37.915Z,15.57
2019-05-14T00:43:13.230Z,15.47
2019-05-14T00:45:44.786Z,15.43
2019-05-14T00:48:16.333Z,15.48
2019-05-14T00:50:47.885Z,15.48
2019-05-14T00:53:21.357Z,15.47
2019-05-14T00:55:52.625Z,15.46
2019-05-14T00:58:24.142Z,15.49
2019-05-14T01:00:55.656Z,15.45
2019-05-14T01:03:27.226Z,15.44
2019-05-14T01:06:03.282Z,15.40
2019-05-14T01:08:41.363Z,15.39
2019-05-14T01:11:12.613Z,15.38
2019-05-14T01:13:45.327Z,15.32
2019-05-14T01:16:16.895Z,15.37
2019-05-14T01:18:51.182Z,15.39
2019-05-14T01:21:24.681Z,15.38
2019-05-14T01:23:56.244Z,15.38
2019-05-14T01:26:28.002Z,15.38
2019-05-14T01:29:01.496Z,15.39
2019-05-14T01:31:34.728Z,15.30
2019-05-14T01:34:07.774Z,15.27
2019-05-14T01:36:41.373Z,15.37
2019-05-14T01:39:13.110Z,15.44
2019-05-14T01:41:44.657Z,15.36
2019-05-14T01:44:16.205Z,15.33
2019-05-14T01:46:51.224Z,15.37
2019-05-14T01:49:23.031Z,15.37
2019-05-14T01:51:54.739Z,15.33
2019-05-14T01:54:27.300Z,15.29
2019-05-14T01:56:58.871Z,15.27
2019-05-14T01:59:32.147Z,15.26
2019-05-14T02:02:04.782Z,15.25
2019-05-14T02:04:36.211Z,15.27
2019-05-14T02:07:07.789Z,15.27
2019-05-14T02:09:41.771Z,15.24
2019-05-14T02:12:13.596Z,15.29
2019-05-14T02:14:45.142Z,15.25
2019-05-14T02:17:16.725Z,15.27
2019-05-14T02:19:48.315Z,15.28
2019-05-14T02:22:21.655Z,15.31
2019-05-14T02:24:54.428Z,15.33
2019-05-14T02:27:25.986Z,15.32
2019-05-14T02:30:02.206Z,15.28
2019-05-14T02:32:40.744Z,15.35
2019-05-14T02:35:13.722Z,15.44
2019-05-14T02:37:46.268Z,15.49
2019-05-14T02:40:20.217Z,15.51
2019-05-14T02:42:51.338Z,15.59
2019-05-14T02:45:22.910Z,15.60
2019-05-14T02:47:55.544Z,15.66
2019-05-14T02:50:29.666Z,15.69
2019-05-14T02:53:01.525Z,15.74
2019-05-14T02:55:34.202Z,15.70
2019-05-14T02:58:09.712Z,15.73
2019-05-14T03:00:45.420Z,15.74
2019-05-14T03:03:19.203Z,15.83
2019-05-14T03:05:52.146Z,15.92
2019-05-14T03:08:23.736Z,15.95
2019-05-14T03:10:55.386Z,15.98
2019-05-14T03:13:29.547Z,16.10
2019-05-14T03:16:21.107Z,16.09
2019-05-14T03:18:35.315Z,16.16
2019-05-14T03:21:09.310Z,16.17
2019-05-14T03:23:40.105Z,16.19
2019-05-14T03:26:11.777Z,16.26
2019-05-14T03:28:43.402Z,16.37
2019-05-14T03:31:14.991Z,16.47
2019-05-14T03:33:51.819Z,16.51
2019-05-14T03:36:27.061Z,16.54
2019-05-14T03:38:59.350Z,16.64
2019-05-14T03:41:31.124Z,16.64
2019-05-14T03:44:03.013Z,16.74
2019-05-14T03:46:46.037Z,16.87
2019-05-14T03:49:09.260Z,16.95
2019-05-14T03:51:41.162Z,17.01
2019-05-14T03:54:13.824Z,16.97
2019-05-14T03:56:45.420Z,17.21
2019-05-14T03:59:19.728Z,17.25
2019-05-14T04:01:51.274Z,17.27
2019-05-14T04:04:23.396Z,17.46
2019-05-14T04:06:59.895Z,17.46
2019-05-14T04:09:33.817Z,17.63
2019-05-14T04:12:09.947Z,17.85
2019-05-14T04:14:44.577Z,17.85
2019-05-14T04:17:31.575Z,18.29
2019-05-14T04:19:54.637Z,18.61
2019-05-14T04:22:31.743Z,19.76
2019-05-14T04:25:10.912Z,20.21
2019-05-14T04:27:43.833Z,20.75
2019-05-14T04:30:20.560Z,21.37
2019-05-14T04:32:50.680Z,22.82
2019-05-14T04:35:22.602Z,22.51
2019-05-14T04:37:54.222Z,22.51
2019-05-14T04:40:25.799Z,22.62
2019-05-14T04:42:59.197Z,22.83
2019-05-14T04:45:32.168Z,22.86
2019-05-14T04:48:21.462Z,24.62
2019-05-14T04:50:40.272Z,23.78
2019-05-14T04:53:10.413Z,23.55
2019-05-14T04:55:42.972Z,23.34
2019-05-14T04:58:15.715Z,23.50
2019-05-14T05:00:49.865Z,24.45
2019-05-14T05:03:22.813Z,24.21
2019-05-14T05:05:58.922Z,24.70
2019-05-14T05:08:31.070Z,24.84
2019-05-14T05:11:02.683Z,25.25
2019-05-14T05:13:34.365Z,26.71
2019-05-14T05:16:09.644Z,25.50
2019-05-14T05:18:40.355Z,25.31
2019-05-14T05:21:11.901Z,25.18
2019-05-14T05:23:43.424Z,25.66
2019-05-14T05:26:18.252Z,25.42
2019-05-14T05:29:02.530Z,25.00
2019-05-14T05:31:23.965Z,26.01
2019-05-14T05:33:58.053Z,25.43
2019-05-14T05:36:29.122Z,25.90
2019-05-14T05:39:00.754Z,25.67
2019-05-14T05:41:33.298Z,26.23
2019-05-14T05:44:05.154Z,26.34
2019-05-14T05:46:39.016Z,26.18
2019-05-14T05:49:10.632Z,25.89
2019-05-14T05:51:43.296Z,26.77
2019-05-14T05:54:15.045Z,26.96
2019-05-14T05:56:50.733Z,26.55
2019-05-14T05:59:29.300Z,26.11
2019-05-14T06:02:02.702Z,26.73
2019-05-14T06:04:34.344Z,26.45
2019-05-14T06:07:05.926Z,26.51
2019-05-14T06:09:38.096Z,27.12
2019-05-14T06:12:10.004Z,26.68
2019-05-14T06:14:42.894Z,26.89
2019-05-14T06:17:14.422Z,27.44
2019-05-14T06:19:52.119Z,27.01
2019-05-14T06:22:24.318Z,27.27
2019-05-14T06:24:59.408Z,28.47
2019-05-14T06:27:31.018Z,27.92
2019-05-14T06:30:02.659Z,28.47
2019-05-14T06:32:34.235Z,27.98
2019-05-14T06:35:08.863Z,28.07
2019-05-14T06:37:40.610Z,28.11
2019-05-14T06:40:13.436Z,28.49
2019-05-14T06:42:48.428Z,28.28
2019-05-14T06:45:21.730Z,28.16
2019-05-14T06:47:53.313Z,28.61
2019-05-14T06:50:28.429Z,28.15
2019-05-14T06:52:59.718Z,28.29
2019-05-14T06:55:31.366Z,29.05
2019-05-14T06:58:03.031Z,29.33
2019-05-14T07:00:34.664Z,28.90
2019-05-14T07:03:08.757Z,29.32
2019-05-14T07:05:41.083Z,29.47
2019-05-14T07:08:12.740Z,29.06
2019-05-14T07:10:44.529Z,28.86
2019-05-14T07:13:18.714Z,28.82
2019-05-14T07:15:49.613Z,28.93
2019-05-14T07:18:21.245Z,29.58
2019-05-14T07:20:54.327Z,29.00
2019-05-14T07:23:32.996Z,28.72
2019-05-14T07:26:08.396Z,28.53
2019-05-14T07:28:42.479Z,28.87
2019-05-14T07:31:13.687Z,29.13
2019-05-14T07:33:50.395Z,30.22
2019-05-14T07:36:29.270Z,29.53
2019-05-14T07:39:01.254Z,28.86
2019-05-14T07:41:39.469Z,29.66
2019-05-14T07:44:18.259Z,29.08
2019-05-14T07:46:55.220Z,29.30
2019-05-14T07:49:29.024Z,29.54
2019-05-14T07:52:06.418Z,29.55
2019-05-14T07:54:41.143Z,29.73
2019-05-14T07:57:12.700Z,29.01
2019-05-14T07:59:44.587Z,29.10
2019-05-14T08:02:16.255Z,29.60
2019-05-14T08:04:51.564Z,29.59
2019-05-14T08:07:28.170Z,29.52
2019-05-14T08:10:02.079Z,29.27
2019-05-14T08:12:35.406Z,29.51
2019-05-14T08:15:17.809Z,29.14
2019-05-14T08:17:42.386Z,29.28
2019-05-14T08:20:14.130Z,28.27
2019-05-14T08:22:45.853Z,27.74
2019-05-14T08:25:19.001Z,27.07
2019-05-14T08:27:50.926Z,26.88
2019-05-14T08:30:22.943Z,26.90
2019-05-14T08:32:58.373Z,26.70
2019-05-14T08:35:34.081Z,26.69
2019-05-14T08:38:11.381Z,26.53
2019-05-14T08:40:43.867Z,26.51
2019-05-14T08:43:18.878Z,26.96
2019-05-14T08:45:50.532Z,26.92
2019-05-14T08:48:24.343Z,26.71
2019-05-14T08:50:55.941Z,26.78
2019-05-14T08:53:30.758Z,26.52
2019-05-14T08:56:02.526Z,26.45
2019-05-14T08:58:34.625Z,26.34
2019-05-14T09:01:08.218Z,26.38
2019-05-14T09:03:45.312Z,26.79
2019-05-14T09:06:19.008Z,26.70
2019-05-14T09:08:59.305Z,26.51
2019-05-14T09:11:35.958Z,26.47
2019-05-14T09:14:03.877Z,25.76
2019-05-14T09:16:42.799Z,26.17
2019-05-14T09:19:12.282Z,25.99
2019-05-14T09:21:45.145Z,26.01
2019-05-14T09:24:18.215Z,26.11
2019-05-14T09:26:50.581Z,26.14
2019-05-14T09:29:26.099Z,25.69
2019-05-14T09:31:55.522Z,25.85
2019-05-14T09:34:29.131Z,25.89
2019-05-14T09:37:08.970Z,26.01
2019-05-14T09:39:44.979Z,25.76
2019-05-14T09:42:19.405Z,25.99
2019-05-14T09:44:49.985Z,26.07
2019-05-14T09:47:21.806Z,26.20
2019-05-14T09:49:53.504Z,26.06
2019-05-14T09:52:29.468Z,25.76
2019-05-14T09:55:02.410Z,25.54
2019-05-14T09:57:33.888Z,25.88
2019-05-14T10:00:09.145Z,25.58
2019-05-14T10:02:41.984Z,25.83
2019-05-14T10:05:13.572Z,25.78
2019-05-14T10:07:45.244Z,25.95
2019-05-14T10:10:19.618Z,25.90
2019-05-14T10:12:56.285Z,26.00
2019-05-14T10:15:23.765Z,25.55
2019-05-14T10:18:00.250Z,25.42
2019-05-14T10:20:40.445Z,25.54
2019-05-14T10:23:09.106Z,25.82
2019-05-14T10:25:42.454Z,26.27
2019-05-14T10:28:19.215Z,26.37
2019-05-14T10:30:51.419Z,25.82
2019-05-14T10:33:25.890Z,25.99
2019-05-14T10:35:58.800Z,26.18
2019-05-14T10:38:34.255Z,26.29
2019-05-14T10:41:24.633Z,26.00
2019-05-14T10:43:58.847Z,25.72
2019-05-14T10:46:29.557Z,25.76
2019-05-14T10:49:16.485Z,25.97
2019-05-14T10:51:38.927Z,25.97
2019-05-14T10:54:21.222Z,25.95
2019-05-14T10:56:43.987Z,25.67
2019-05-14T10:59:18.503Z,25.57
2019-05-14T11:01:50.370Z,25.72
2019-05-14T11:04:21.911Z,25.91
2019-05-14T11:06:54.676Z,26.12
2019-05-14T11:09:28.434Z,26.31
2019-05-14T11:11:59.755Z,26.19
2019-05-14T11:14:32.117Z,25.91
2019-05-14T11:17:05.105Z,26.12
2019-05-14T11:19:38.782Z,26.69
2019-05-14T11:22:09.874Z,26.69
2019-05-14T11:24:42.411Z,26.96
2019-05-14T11:27:15.080Z,26.20
2019-05-14T11:29:49.270Z,26.08
2019-05-14T11:32:21.368Z,26.04
2019-05-14T11:34:54.042Z,26.07
2019-05-14T11:37:28.017Z,26.26
2019-05-14T11:39:59.010Z,26.52
2019-05-14T11:42:31.698Z,26.51
2019-05-14T11:45:03.997Z,26.56
2019-05-14T11:47:38.033Z,26.60
2019-05-14T11:50:10.142Z,26.33
2019-05-14T11:52:43.919Z,26.23
2019-05-14T11:55:18.862Z,26.18
2019-05-14T11:57:50.638Z,26.14
2019-05-14T12:00:29.325Z,25.96
2019-05-14T12:03:00.688Z,25.84
2019-05-14T12:05:32.396Z,25.73
2019-05-14T12:08:04.047Z,25.85
2019-05-14T12:10:38.524Z,25.75
2019-05-14T12:13:21.740Z,25.74
2019-05-14T12:15:53.396Z,25.63
2019-05-14T12:18:29.220Z,25.67
2019-05-14T12:21:00.137Z,25.75
2019-05-14T12:23:32.393Z,25.82
2019-05-14T12:26:04.373Z,25.66
2019-05-14T12:28:38.461Z,25.97
2019-05-14T12:31:09.571Z,25.77
2019-05-14T12:33:41.962Z,25.73
2019-05-14T12:36:14.585Z,25.98
2019-05-14T12:38:48.432Z,26.11
2019-05-14T12:41:20.091Z,25.82
2019-05-14T12:43:51.727Z,26.13
2019-05-14T12:46:23.340Z,26.40
2019-05-14T12:48:55.052Z,26.18
2019-05-14T12:51:30.721Z,26.19
2019-05-14T12:54:03.321Z,26.29
2019-05-14T12:56:39.200Z,25.99
2019-05-14T12:59:12.048Z,25.98
2019-05-14T13:01:49.280Z,26.09
2019-05-14T13:04:22.357Z,26.13
2019-05-14T13:06:55.255Z,26.10
2019-05-14T13:09:26.891Z,26.30
2019-05-14T13:11:58.782Z,26.28
2019-05-14T13:14:32.346Z,26.26
2019-05-14T13:17:04.321Z,26.20
2019-05-14T13:19:37.979Z,26.07
2019-05-14T13:22:15.099Z,25.99
2019-05-14T13:24:44.357Z,25.97
2019-05-14T13:27:19.079Z,25.85
2019-05-14T13:29:49.729Z,26.04
2019-05-14T13:32:21.268Z,25.85
2019-05-14T13:34:52.964Z,25.57
2019-05-14T13:37:28.661Z,25.56
2019-05-14T13:39:59.350Z,25.38
2019-05-14T13:42:31.075Z,25.27
2019-05-14T13:45:02.631Z,25.08
2019-05-14T13:47:34.199Z,25.26
2019-05-14T13:50:08.504Z,25.49
2019-05-14T13:52:58.223Z,25.53
2019-05-14T13:55:19.678Z,25.56
2019-05-14T13:57:51.445Z,25.49
2019-05-14T14:00:24.428Z,25.65
2019-05-14T14:02:58.818Z,25.66
2019-05-14T14:05:31.103Z,25.80
2019-05-14T14:08:02.709Z,25.64
2019-05-14T14:10:45.041Z,25.70
2019-05-14T14:13:11.702Z,25.55
2019-05-14T14:15:45.951Z,25.53
2019-05-14T14:18:21.021Z,25.61
2019-05-14T14:20:54.160Z,25.47
2019-05-14T14:23:30.404Z,25.47
2019-05-14T14:25:59.646Z,25.22
2019-05-14T14:28:31.514Z,25.27
2019-05-14T14:31:06.906Z,25.33
2019-05-14T14:33:38.935Z,25.47
2019-05-14T14:36:09.932Z,25.43
2019-05-14T14:38:45.009Z,25.19
2019-05-14T14:41:19.463Z,25.20
2019-05-14T14:43:55.112Z,25.12
2019-05-14T14:46:31.343Z,25.20
2019-05-14T14:49:06.540Z,25.20
2019-05-14T14:51:45.256Z,25.15
2019-05-14T14:54:18.283Z,25.09
2019-05-14T14:56:51.990Z,25.00
2019-05-14T14:59:30.438Z,25.01
2019-05-14T15:05:12.789Z,25.22
2019-05-14T15:07:41.218Z,25.35
2019-05-14T15:10:13.263Z,25.19
2019-05-14T15:12:45.002Z,25.06
2019-05-14T15:15:26.391Z,25.15
2019-05-14T15:17:59.109Z,24.90
2019-05-14T15:20:31.196Z,25.03
2019-05-14T15:23:02.914Z,24.95
2019-05-14T15:25:34.865Z,24.87
2019-05-14T15:28:09.542Z,24.90
2019-05-14T15:30:41.548Z,24.97
2019-05-14T15:33:14.725Z,24.88
2019-05-14T15:35:49.132Z,24.82
2019-05-14T15:38:20.415Z,24.77
2019-05-14T15:40:52.037Z,24.66
2019-05-14T15:43:28.552Z,24.76
2019-05-14T15:46:02.437Z,24.74
2019-05-14T15:48:39.501Z,24.81
2019-05-14T15:51:14.752Z,24.64
2019-05-14T15:54:05.450Z,24.76
2019-05-14T15:56:30.049Z,24.69
2019-05-14T15:59:01.658Z,24.63
2019-05-14T16:01:33.299Z,24.62
2019-05-14T16:04:05.056Z,24.57
2019-05-14T16:06:43.834Z,24.52
2019-05-14T16:09:15.975Z,24.28
2019-05-14T16:11:49.651Z,24.38
2019-05-14T16:14:23.332Z,24.19
2019-05-14T16:16:56.914Z,24.06
2019-05-14T16:19:30.103Z,23.96
2019-05-14T16:22:01.795Z,23.92
2019-05-14T16:24:52.206Z,23.79
2019-05-14T16:27:11.259Z,23.77
2019-05-14T16:29:46.908Z,23.74
2019-05-14T16:32:18.579Z,23.62
2019-05-14T16:34:50.224Z,23.61
2019-05-14T16:37:22.171Z,23.58
2019-05-14T16:39:56.502Z,23.68
2019-05-14T16:42:29.292Z,23.63
2019-05-14T16:45:01.246Z,23.55
2019-05-14T16:47:35.297Z,23.57
2019-05-14T16:50:10.025Z,23.42
2019-05-14T16:52:45.136Z,23.36
2019-05-14T16:55:26.881Z,23.27
2019-05-14T16:58:03.784Z,23.33
2019-05-14T17:00:42.675Z,23.22
2019-05-14T17:03:19.338Z,23.11
2019-05-14T17:05:51.084Z,23.03
2019-05-14T17:08:28.478Z,22.92
2019-05-14T17:10:59.877Z,23.02
2019-05-14T17:13:39.494Z,23.00
2019-05-14T17:16:12.924Z,22.89
2019-05-14T17:18:48.577Z,22.85
2019-05-14T17:21:22.916Z,22.83
2019-05-14T17:23:58.077Z,22.76
2019-05-14T17:26:31.124Z,22.67
2019-05-14T17:29:05.289Z,22.57
2019-05-14T17:31:40.534Z,22.58
2019-05-14T17:34:12.131Z,22.56
2019-05-14T17:36:43.769Z,22.54
2019-05-14T17:39:15.398Z,22.45
2019-05-14T17:41:48.525Z,22.28
2019-05-14T17:44:20.489Z,22.23
2019-05-14T17:46:53.215Z,22.19
2019-05-14T17:49:24.776Z,22.06
2019-05-14T17:51:58.097Z,22.02
2019-05-14T17:54:29.915Z,22.00
2019-05-14T17:57:02.395Z,21.93
2019-05-14T17:59:35.036Z,21.93
2019-05-14T18:02:08.687Z,21.92
2019-05-14T18:04:40.497Z,21.86
2019-05-14T18:07:12.166Z,21.80
2019-05-14T18:09:43.809Z,21.75
2019-05-14T18:12:18.926Z,21.68
2019-05-14T18:14:50.885Z,21.67
2019-05-14T18:17:22.469Z,21.62
2019-05-14T18:19:54.070Z,21.44
2019-05-14T18:22:28.463Z,21.41
2019-05-14T18:25:00.938Z,21.36
2019-05-14T18:27:39.277Z,21.27
2019-05-14T18:30:12.256Z,21.21
2019-05-14T18:32:44.886Z,21.12
2019-05-14T18:35:18.878Z,21.05
2019-05-14T18:37:50.418Z,20.95
2019-05-14T18:40:24.094Z,20.93
2019-05-14T18:42:59.086Z,20.89
2019-05-14T18:45:31.276Z,20.79
2019-05-14T18:48:04.126Z,20.73
2019-05-14T18:50:37.036Z,20.74
2019-05-14T18:53:12.867Z,20.66
2019-05-14T18:55:42.091Z,20.65
2019-05-14T18:58:13.697Z,20.55
2019-05-14T19:00:47.906Z,20.56
2019-05-14T19:03:20.005Z,20.49
2019-05-14T19:05:51.597Z,20.40
2019-05-14T19:08:24.193Z,20.33
2019-05-14T19:11:00.282Z,20.29
2019-05-14T19:13:31.924Z,20.25
2019-05-14T19:16:03.535Z,20.23
2019-05-14T19:18:35.188Z,20.29
2019-05-14T19:21:08.812Z,20.24
2019-05-14T19:23:40.171Z,20.27
2019-05-14T19:26:13.619Z,20.23
2019-05-14T19:28:45.220Z,20.17
2019-05-14T19:31:18.462Z,20.19
2019-05-14T19:33:50.076Z,20.22
2019-05-14T19:36:22.902Z,20.18
2019-05-14T19:38:54.577Z,20.19
2019-05-14T19:41:28.127Z,20.17
2019-05-14T19:43:59.822Z,20.12
2019-05-14T19:46:31.400Z,20.05
2019-05-14T19:49:03.071Z,20.01
2019-05-14T19:51:34.730Z,20.00
2019-05-14T19:54:08.146Z,19.99
2019-05-14T19:56:52.392Z,19.93
2019-05-14T19:59:13.230Z,19.88
2019-05-14T20:01:48.233Z,19.80
2019-05-14T20:04:20.197Z,19.73
2019-05-14T20:06:51.756Z,19.69
2019-05-14T20:09:24.527Z,19.61
2019-05-14T20:11:58.164Z,19.51
2019-05-14T20:14:29.529Z,19.53
2019-05-14T20:17:01.189Z,19.43
2019-05-14T20:19:32.816Z,19.45
2019-05-14T20:22:04.505Z,19.35
2019-05-14T20:24:36.128Z,19.26
2019-05-14T20:27:11.759Z,19.18
2019-05-14T20:29:42.116Z,19.15
2019-05-14T20:32:13.671Z,19.14
2019-05-14T20:34:45.220Z,19.08
2019-05-14T20:37:18.961Z,19.03
2019-05-14T20:39:50.602Z,18.98
2019-05-14T20:42:25.939Z,18.95
2019-05-14T20:44:57.534Z,18.91
2019-05-14T20:47:30.489Z,18.82
2019-05-14T20:50:02.065Z,18.85
2019-05-14T20:52:33.597Z,18.82
2019-05-14T20:55:09.691Z,18.75
2019-05-14T20:57:41.365Z,18.79
2019-05-14T21:00:13.192Z,18.75
2019-05-14T21:02:44.739Z,18.72
2019-05-14T21:05:18.689Z,18.69
2019-05-14T21:07:49.547Z,18.70
2019-05-14T21:10:23.123Z,18.67
2019-05-14T21:12:54.670Z,18.62
2019-05-14T21:15:28.515Z,18.60
2019-05-14T21:18:01.600Z,18.62
2019-05-14T21:20:33.264Z,18.63
2019-05-14T21:23:04.843Z,18.50
2019-05-14T21:25:38.541Z,18.47
2019-05-14T21:28:09.809Z,18.36
2019-05-14T21:30:41.288Z,18.43
2019-05-14T21:33:12.785Z,18.38
2019-05-14T21:35:44.418Z,18.34
2019-05-14T21:38:16.070Z,18.31
2019-05-14T21:40:49.759Z,18.30
2019-05-14T21:43:22.005Z,18.28
2019-05-14T21:45:54.558Z,18.26
2019-05-14T21:48:26.136Z,18.23
2019-05-14T21:51:00.608Z,18.25
2019-05-14T21:53:31.013Z,18.26
2019-05-14T21:56:03.858Z,18.30
2019-05-14T21:58:38.772Z,18.35
2019-05-14T22:01:11.956Z,18.39
2019-05-14T22:03:44.128Z,18.47
2019-05-14T22:06:18.140Z,18.56
2019-05-14T22:08:49.064Z,18.56
2019-05-14T22:11:20.626Z,18.51
2019-05-14T22:13:52.278Z,18.48
2019-05-14T22:16:23.833Z,18.49
2019-05-14T22:18:55.424Z,18.43
2019-05-14T22:21:28.885Z,18.47
2019-05-14T22:24:00.300Z,18.43
2019-05-14T22:26:32.812Z,18.36
2019-05-14T22:29:08.348Z,18.31
2019-05-14T22:31:40.670Z,18.24
2019-05-14T22:34:12.233Z,18.22
2019-05-14T22:36:44.787Z,18.16
2019-05-14T22:39:19.789Z,18.14
2019-05-14T22:41:50.600Z,18.09
2019-05-14T22:44:23.851Z,18.09
2019-05-14T22:46:55.583Z,18.14
2019-05-14T22:49:29.290Z,18.12
2019-05-14T22:52:02.952Z,18.07
2019-05-14T22:54:34.562Z,18.03
2019-05-14T22:57:06.180Z,18.06
2019-05-14T22:59:39.258Z,18.07
2019-05-14T23:02:19.148Z,18.09
2019-05-14T23:04:50.042Z,18.11
2019-05-14T23:07:21.576Z,18.11
2019-05-14T23:09:53.114Z,18.10
2019-05-14T23:12:24.735Z,18.15
2019-05-14T23:14:58.145Z,18.24
2019-05-14T23:17:30.576Z,18.32
2019-05-14T23:20:03.665Z,18.41
2019-05-14T23:22:35.218Z,18.34
2019-05-14T23:25:10.083Z,18.33
2019-05-14T23:27:41.625Z,18.31
2019-05-14T23:30:13.728Z,18.23
2019-05-14T23:32:45.285Z,18.15
2019-05-14T23:35:19.073Z,18.09
2019-05-14T23:37:50.097Z,18.04
2019-05-14T23:40:22.714Z,18.06
2019-05-14T23:42:55.404Z,18.04
2019-05-14T23:45:28.499Z,17.97
2019-05-14T23:48:00.173Z,17.85
2019-05-14T23:50:33.816Z,17.87
2019-05-14T23:53:09.169Z,17.68
2019-05-14T23:55:40.716Z,17.62
2019-05-14T23:58:20.624Z,17.50
